Metar z pełnej godziny Komunikat METAR ze strony awiacja.imgw.pl Metar G00 EPMO METAR EPMO 172100Z 08002KT CAVOK 08/06 Q1021 =